Flugplatz Celle-Arloh

Für EDVC sind keine METAR/TAF Berichte vorhanden.
Es werden die Flugwettermeldungen vom Flugplatz Celle Airport in 12 km Entfernung angezeigt.

Bericht für ETHC

vom 14.08. um 07:20 UTC

Wind 4 kt aus 230°

Sichtweite 10 km oder mehr

gering bewölkt in 15000 ft

aufgebrochene Bewölkung in 26000 ft

Temperatur 23.0°C

Taupunkt 18.0°C

Luftfeuchtigkeit 73%

Luftdruck 1012 hPa

ETHC 140720Z 23004KT 9999 FEW150 BKN260 23/18 Q1012 BLU+BLU+ TEMPO BLU

Prognose für ETHC

vom 14.08. um 07:07 UTC

Zwischen 08:00 UTC und 17:00 UTC

Wind 5 kt aus 250°

Sichtweite 10 km oder mehr

keine signifikanten Wettererscheinungen

gering bewölkt in 3000 ft

aufgelockert bewölkt in 15000 ft

aufgebrochene Bewölkung in 25000 ft


Zwischen 11:00 UTC und 17:00 UTC zeitweise

variable Windrichtung mit 3 kt

Sichtweite 8000 m

Code: TSRA

aufgelockert bewölkt in 3000 ft

aufgebrochene Bewölkung in 13000 ft


Zwischen 12:00 UTC und 17:00 UTC mit einer Wahrscheinlichkeit von 30%

variable Windrichtung mit 10 kt in Böen 30 kt

Sichtweite 1500 m

Code: TSRA

aufgebrochene Bewölkung in 3000 ft

TAF ETHC 140707Z 1408/1417 25005KT 9999 NSW FEW030 SCT150 BKN250 TEMPO 1411/1417 VRB03KT 8000 -TSRA SCT030CB BKN130 PROB30 1412/1417 VRB10G30KT 1500 TSRA BKN030CB
Impressum